createdAt,value
2018-06-28T00:00:52.789Z,18.05
2018-06-28T00:01:52.793Z,17.92
2018-06-28T00:02:52.793Z,18.03
2018-06-28T00:03:52.797Z,18.13
2018-06-28T00:04:52.798Z,18.07
2018-06-28T00:05:52.802Z,18.11
2018-06-28T00:06:52.804Z,18.10
2018-06-28T00:07:52.807Z,18.07
2018-06-28T00:08:52.866Z,18.07
2018-06-28T00:09:52.816Z,18.18
2018-06-28T00:10:52.815Z,18.19
2018-06-28T00:11:52.817Z,18.16
2018-06-28T00:12:52.820Z,18.18
2018-06-28T00:13:52.823Z,18.16
2018-06-28T00:14:52.825Z,18.22
2018-06-28T00:15:52.827Z,18.22
2018-06-28T00:16:52.831Z,18.22
2018-06-28T00:17:52.833Z,18.13
2018-06-28T00:18:52.835Z,18.22
2018-06-28T00:19:52.838Z,18.22
2018-06-28T00:20:52.842Z,18.22
2018-06-28T00:21:52.843Z,18.20
2018-06-28T00:22:52.844Z,18.07
2018-06-28T00:23:52.849Z,18.05
2018-06-28T00:24:52.851Z,18.07
2018-06-28T00:25:52.854Z,18.07
2018-06-28T00:26:52.855Z,18.01
2018-06-28T00:27:52.858Z,18.00
2018-06-28T00:28:52.860Z,17.89
2018-06-28T00:29:52.863Z,18.03
2018-06-28T00:30:52.865Z,17.97
2018-06-28T00:31:52.868Z,17.92
2018-06-28T00:32:52.872Z,18.01
2018-06-28T00:33:52.874Z,17.97
2018-06-28T00:34:52.879Z,17.95
2018-06-28T00:35:52.877Z,17.87
2018-06-28T00:36:52.881Z,17.94
2018-06-28T00:37:52.882Z,17.89
2018-06-28T00:38:52.884Z,17.90
2018-06-28T00:39:52.888Z,17.94
2018-06-28T00:40:52.891Z,17.87
2018-06-28T00:41:52.893Z,18.00
2018-06-28T00:42:52.896Z,17.89
2018-06-28T00:43:52.898Z,18.00
2018-06-28T00:44:52.900Z,17.92
2018-06-28T00:45:52.905Z,17.95
2018-06-28T00:46:52.905Z,17.94
2018-06-28T00:47:52.908Z,17.94
2018-06-28T00:48:52.910Z,17.92
2018-06-28T00:49:52.917Z,18.00
2018-06-28T00:50:52.917Z,17.98
2018-06-28T00:51:52.917Z,17.90
2018-06-28T00:52:52.919Z,17.89
2018-06-28T00:53:52.923Z,17.90
2018-06-28T00:54:52.924Z,17.85
2018-06-28T00:55:52.927Z,17.82
2018-06-28T00:56:52.928Z,17.86
2018-06-28T00:57:52.933Z,17.85
2018-06-28T00:58:52.934Z,17.85
2018-06-28T00:59:52.936Z,17.92
2018-06-28T01:00:52.938Z,17.89
2018-06-28T01:01:52.941Z,17.92
2018-06-28T01:02:52.943Z,17.89
2018-06-28T01:03:52.946Z,17.94
2018-06-28T01:04:52.948Z,17.89
2018-06-28T01:05:52.952Z,17.97
2018-06-28T01:06:52.956Z,17.87
2018-06-28T01:07:52.955Z,17.82
2018-06-28T01:08:52.962Z,17.80
2018-06-28T01:09:52.960Z,17.85
2018-06-28T01:10:52.961Z,17.92
2018-06-28T01:11:52.966Z,17.80
2018-06-28T01:12:52.967Z,17.86
2018-06-28T01:13:52.970Z,17.82
2018-06-28T01:14:52.971Z,17.83
2018-06-28T01:15:52.976Z,17.82
2018-06-28T01:16:52.976Z,17.78
2018-06-28T01:17:52.979Z,17.78
2018-06-28T01:18:52.981Z,17.76
2018-06-28T01:19:52.984Z,17.72
2018-06-28T01:20:52.986Z,17.76
2018-06-28T01:21:52.987Z,17.78
2018-06-28T01:22:52.989Z,17.72
2018-06-28T01:23:52.992Z,17.68
2018-06-28T01:24:52.998Z,17.67
2018-06-28T01:25:52.998Z,17.74
2018-06-28T01:26:52.997Z,17.78
2018-06-28T01:27:53.001Z,17.64
2018-06-28T01:28:53.005Z,17.63
2018-06-28T01:29:53.007Z,17.64
2018-06-28T01:30:53.008Z,17.67
2018-06-28T01:31:53.010Z,17.68
2018-06-28T01:32:53.013Z,17.64
2018-06-28T01:33:53.015Z,17.67
2018-06-28T01:34:53.017Z,17.68
2018-06-28T01:35:53.019Z,17.63
2018-06-28T01:36:53.022Z,17.67
2018-06-28T01:37:53.023Z,17.67
2018-06-28T01:38:53.027Z,17.63
2018-06-28T01:39:53.028Z,17.60
2018-06-28T01:40:53.031Z,17.64
2018-06-28T01:41:53.034Z,17.60
2018-06-28T01:42:53.035Z,17.63
2018-06-28T01:43:53.035Z,17.51
2018-06-28T01:44:53.039Z,17.65
2018-06-28T01:45:53.041Z,17.65
2018-06-28T01:46:53.077Z,17.56
2018-06-28T01:47:53.045Z,17.54
2018-06-28T01:48:53.047Z,17.64
2018-06-28T01:49:53.049Z,17.56
2018-06-28T01:50:53.051Z,17.57
2018-06-28T01:51:53.053Z,17.54
2018-06-28T01:52:53.061Z,17.56
2018-06-28T01:53:53.064Z,17.52
2018-06-28T01:54:53.058Z,17.56
2018-06-28T01:55:53.061Z,17.56
2018-06-28T01:56:53.063Z,17.39
2018-06-28T01:57:53.066Z,17.46
2018-06-28T01:58:53.067Z,17.48
2018-06-28T01:59:53.068Z,17.39
2018-06-28T02:00:53.074Z,17.31
2018-06-28T02:01:53.073Z,17.30
2018-06-28T02:02:53.077Z,17.30
2018-06-28T02:03:53.078Z,17.27
2018-06-28T02:04:53.079Z,17.33
2018-06-28T02:05:53.083Z,17.33
2018-06-28T02:06:53.083Z,17.30
2018-06-28T02:07:53.087Z,17.27
2018-06-28T02:08:53.089Z,17.26
2018-06-28T02:09:53.091Z,17.24
2018-06-28T02:10:53.091Z,17.31
2018-06-28T02:11:53.095Z,17.33
2018-06-28T02:12:53.100Z,17.23
2018-06-28T02:13:53.099Z,17.29
2018-06-28T02:14:53.100Z,17.20
2018-06-28T02:15:53.102Z,17.20
2018-06-28T02:16:53.106Z,17.22
2018-06-28T02:17:53.107Z,17.22
2018-06-28T02:18:53.116Z,17.26
2018-06-28T02:19:53.115Z,17.23
2018-06-28T02:20:53.113Z,17.22
2018-06-28T02:21:53.115Z,17.20
2018-06-28T02:22:53.116Z,17.19
2018-06-28T02:23:53.119Z,17.24
2018-06-28T02:24:53.121Z,17.19
2018-06-28T02:25:53.123Z,17.19
2018-06-28T02:26:53.124Z,17.16
2018-06-28T02:27:53.736Z,17.22
2018-06-28T02:28:53.129Z,17.14
2018-06-28T02:29:53.130Z,17.09
2018-06-28T02:30:53.132Z,17.22
2018-06-28T02:31:53.134Z,17.09
2018-06-28T02:32:53.136Z,17.05
2018-06-28T02:33:53.139Z,17.05
2018-06-28T02:34:53.139Z,17.04
2018-06-28T02:35:53.142Z,17.05
2018-06-28T02:36:53.144Z,17.04
2018-06-28T02:37:53.146Z,16.94
2018-06-28T02:38:53.147Z,16.99
2018-06-28T02:39:54.363Z,16.97
2018-06-28T02:40:53.152Z,17.01
2018-06-28T02:41:53.154Z,16.99
2018-06-28T02:42:53.155Z,17.02
2018-06-28T02:43:53.157Z,17.02
2018-06-28T02:44:53.159Z,16.97
2018-06-28T02:45:53.161Z,17.02
2018-06-28T02:46:53.165Z,17.01
2018-06-28T02:47:53.164Z,17.04
2018-06-28T02:48:53.167Z,16.94
2018-06-28T02:49:53.167Z,16.90
2018-06-28T02:50:53.182Z,16.86
2018-06-28T02:51:53.170Z,16.79
2018-06-28T02:52:53.174Z,16.74
2018-06-28T02:53:53.175Z,16.71
2018-06-28T02:54:53.178Z,16.66
2018-06-28T02:55:53.179Z,16.64
2018-06-28T02:56:53.182Z,16.56
2018-06-28T02:57:53.183Z,16.64
2018-06-28T02:58:53.183Z,16.60
2018-06-28T02:59:53.187Z,16.60
2018-06-28T03:00:53.188Z,16.57
2018-06-28T03:01:53.190Z,16.56
2018-06-28T03:02:53.192Z,16.57
2018-06-28T03:03:53.194Z,16.57
2018-06-28T03:04:53.196Z,16.51
2018-06-28T03:05:53.196Z,16.57
2018-06-28T03:06:53.198Z,16.51
2018-06-28T03:07:53.200Z,16.50
2018-06-28T03:08:53.202Z,16.49
2018-06-28T03:09:53.204Z,16.51
2018-06-28T03:10:53.204Z,16.51
2018-06-28T03:11:53.212Z,16.49
2018-06-28T03:12:53.209Z,16.49
2018-06-28T03:13:53.211Z,16.47
2018-06-28T03:14:53.212Z,16.47
2018-06-28T03:15:53.214Z,16.43
2018-06-28T03:16:53.216Z,16.41
2018-06-28T03:17:53.218Z,16.42
2018-06-28T03:18:53.221Z,16.32
2018-06-28T03:19:53.221Z,16.38
2018-06-28T03:20:53.228Z,16.38
2018-06-28T03:21:53.224Z,16.39
2018-06-28T03:22:53.224Z,16.42
2018-06-28T03:23:53.228Z,16.43
2018-06-28T03:24:53.229Z,16.43
2018-06-28T03:25:53.230Z,16.31
2018-06-28T03:26:53.235Z,16.28
2018-06-28T03:27:53.235Z,16.20
2018-06-28T03:28:53.236Z,16.20
2018-06-28T03:29:53.242Z,16.13
2018-06-28T03:30:53.247Z,16.13
2018-06-28T03:31:53.242Z,16.15
2018-06-28T03:32:53.242Z,16.12
2018-06-28T03:33:53.248Z,16.20
2018-06-28T03:34:53.245Z,16.12
2018-06-28T03:35:53.247Z,16.12
2018-06-28T03:36:53.249Z,16.13
2018-06-28T03:37:53.292Z,16.16
2018-06-28T03:38:53.251Z,16.12
2018-06-28T03:39:53.253Z,16.12
2018-06-28T03:40:53.254Z,16.09
2018-06-28T03:41:53.257Z,16.05
2018-06-28T03:42:53.257Z,16.12
2018-06-28T03:43:53.260Z,16.09
2018-06-28T03:44:53.261Z,16.05
2018-06-28T03:45:53.306Z,16.08
2018-06-28T03:46:53.262Z,16.10
2018-06-28T03:47:53.266Z,16.13
2018-06-28T03:48:53.268Z,16.10
2018-06-28T03:49:53.272Z,16.16
2018-06-28T03:50:53.270Z,16.21
2018-06-28T03:51:53.273Z,16.16
2018-06-28T03:52:53.274Z,16.29
2018-06-28T03:53:53.275Z,16.32
2018-06-28T03:54:53.276Z,16.29
2018-06-28T03:55:53.277Z,16.31
2018-06-28T03:56:53.279Z,16.28
2018-06-28T03:57:53.280Z,16.38
2018-06-28T03:58:53.282Z,16.38
2018-06-28T03:59:53.284Z,16.39
2018-06-28T04:00:53.286Z,16.38
2018-06-28T04:01:53.287Z,16.43
2018-06-28T04:02:53.293Z,16.50
2018-06-28T04:03:53.293Z,16.53
2018-06-28T04:04:53.292Z,16.57
2018-06-28T04:05:53.293Z,16.60
2018-06-28T04:06:53.295Z,16.65
2018-06-28T04:07:53.296Z,16.68
2018-06-28T04:08:53.298Z,16.71
2018-06-28T04:09:53.299Z,16.72
2018-06-28T04:10:53.302Z,16.72
2018-06-28T04:11:53.302Z,16.78
2018-06-28T04:12:53.305Z,16.74
2018-06-28T04:13:53.306Z,16.74
2018-06-28T04:14:53.307Z,16.75
2018-06-28T04:15:53.308Z,16.86
2018-06-28T04:16:53.309Z,16.90
2018-06-28T04:17:53.349Z,17.02
2018-06-28T04:18:53.313Z,16.94
2018-06-28T04:19:53.314Z,17.06
2018-06-28T04:20:53.317Z,17.02
2018-06-28T04:21:53.317Z,17.06
2018-06-28T04:22:53.319Z,17.11
2018-06-28T04:23:53.321Z,17.19
2018-06-28T04:24:53.325Z,17.29
2018-06-28T04:25:53.324Z,17.26
2018-06-28T04:26:53.328Z,17.24
2018-06-28T04:27:53.328Z,17.27
2018-06-28T04:28:53.331Z,17.29
2018-06-28T04:29:53.332Z,17.34
2018-06-28T04:30:53.337Z,17.34
2018-06-28T04:31:53.338Z,17.44
2018-06-28T04:32:53.337Z,17.46
2018-06-28T04:33:53.339Z,17.54
2018-06-28T04:34:53.343Z,17.63
2018-06-28T04:35:53.343Z,17.63
2018-06-28T04:36:53.344Z,17.68
2018-06-28T04:37:53.346Z,17.63
2018-06-28T04:38:53.349Z,17.63
2018-06-28T04:39:53.348Z,17.67
2018-06-28T04:40:53.361Z,17.63
2018-06-28T04:41:53.353Z,17.71
2018-06-28T04:42:53.355Z,17.71
2018-06-28T04:43:53.356Z,17.82
2018-06-28T04:44:53.358Z,17.71
2018-06-28T04:45:53.360Z,17.85
2018-06-28T04:46:53.362Z,17.76
2018-06-28T04:47:53.365Z,17.82
2018-06-28T04:48:53.367Z,17.85
2018-06-28T04:49:53.421Z,17.85
2018-06-28T04:50:53.371Z,17.89
2018-06-28T04:51:53.372Z,17.87
2018-06-28T04:52:53.377Z,18.00
2018-06-28T04:53:53.380Z,17.98
2018-06-28T04:54:53.379Z,17.98
2018-06-28T04:55:53.381Z,17.95
2018-06-28T04:56:53.385Z,18.00
2018-06-28T04:57:53.386Z,18.04
2018-06-28T04:58:53.424Z,18.04
2018-06-28T04:59:53.389Z,18.07
2018-06-28T05:00:53.393Z,18.07
2018-06-28T05:01:53.395Z,18.07
2018-06-28T05:02:53.396Z,18.19
2018-06-28T05:03:53.398Z,18.18
2018-06-28T05:04:53.401Z,18.22
2018-06-28T05:05:53.403Z,18.26
2018-06-28T05:06:53.406Z,18.34
2018-06-28T05:07:53.408Z,18.41
2018-06-28T05:08:53.416Z,18.40
2018-06-28T05:09:53.413Z,18.41
2018-06-28T05:10:53.414Z,18.50
2018-06-28T05:11:53.417Z,18.45
2018-06-28T05:12:53.418Z,18.52
2018-06-28T05:13:53.424Z,18.59
2018-06-28T05:14:53.424Z,18.60
2018-06-28T05:15:53.427Z,18.58
2018-06-28T05:16:53.429Z,18.55
2018-06-28T05:17:53.432Z,18.56
2018-06-28T05:18:53.434Z,18.58
2018-06-28T05:19:53.436Z,18.58
2018-06-28T05:20:53.438Z,18.62
2018-06-28T05:21:53.441Z,18.78
2018-06-28T05:22:53.491Z,19.22
2018-06-28T05:23:53.446Z,20.41
2018-06-28T05:24:53.454Z,21.67
2018-06-28T05:25:53.455Z,22.72
2018-06-28T05:26:53.462Z,23.37
2018-06-28T05:27:53.464Z,23.96
2018-06-28T05:28:53.467Z,24.60
2018-06-28T05:29:53.473Z,25.03
2018-06-28T05:30:53.479Z,25.44
2018-06-28T05:31:53.486Z,25.72
2018-06-28T05:32:53.493Z,25.85
2018-06-28T05:33:53.499Z,25.88
2018-06-28T05:34:53.563Z,26.22
2018-06-28T05:35:53.516Z,26.56
2018-06-28T05:36:53.526Z,26.90
2018-06-28T05:37:53.535Z,27.15
2018-06-28T05:38:53.545Z,26.97
2018-06-28T05:39:53.556Z,27.10
2018-06-28T05:40:53.737Z,27.33
2018-06-28T05:41:53.577Z,27.44
2018-06-28T05:42:53.588Z,27.14
2018-06-28T05:43:53.598Z,26.83
2018-06-28T05:44:53.612Z,26.97
2018-06-28T05:45:53.622Z,27.00
2018-06-28T05:46:53.632Z,26.65
2018-06-28T05:47:53.645Z,26.28
2018-06-28T05:48:53.658Z,26.07
2018-06-28T05:49:53.671Z,25.77
2018-06-28T05:50:53.682Z,25.60
2018-06-28T05:51:53.694Z,25.46
2018-06-28T05:52:53.706Z,25.28
2018-06-28T05:53:53.723Z,25.14
2018-06-28T05:54:53.729Z,24.85
2018-06-28T05:55:53.740Z,24.24
2018-06-28T05:56:53.752Z,23.86
2018-06-28T05:57:53.764Z,23.65
2018-06-28T05:58:53.773Z,23.21
2018-06-28T05:59:53.784Z,22.93
2018-06-28T06:00:53.795Z,22.73
2018-06-28T06:01:53.811Z,22.68
2018-06-28T06:02:53.815Z,22.66
2018-06-28T06:03:53.826Z,22.72
2018-06-28T06:04:53.835Z,22.65
2018-06-28T06:05:53.847Z,22.66
2018-06-28T06:06:53.853Z,22.53
2018-06-28T06:07:53.864Z,22.55
2018-06-28T06:08:53.875Z,22.36
2018-06-28T06:09:53.883Z,22.25
2018-06-28T06:10:53.892Z,22.26
2018-06-28T06:11:53.900Z,22.22
2018-06-28T06:12:53.908Z,22.02
2018-06-28T06:13:53.920Z,22.07
2018-06-28T06:14:53.924Z,21.99
2018-06-28T06:15:53.933Z,22.04
2018-06-28T06:16:53.941Z,22.07
2018-06-28T06:17:53.950Z,22.15
2018-06-28T06:18:53.957Z,22.08
2018-06-28T06:19:53.964Z,22.06
2018-06-28T06:20:53.974Z,22.15
2018-06-28T06:21:53.980Z,22.06
2018-06-28T06:22:53.988Z,22.02
2018-06-28T06:23:53.995Z,22.00
2018-06-28T06:24:54.004Z,22.07
2018-06-28T06:25:54.011Z,22.06
2018-06-28T06:26:54.018Z,22.11
2018-06-28T06:27:54.025Z,22.17
2018-06-28T06:28:54.032Z,22.15
2018-06-28T06:29:54.040Z,22.14
2018-06-28T06:30:54.046Z,22.15
2018-06-28T06:31:54.053Z,22.25
2018-06-28T06:32:54.060Z,22.08
2018-06-28T06:33:54.067Z,22.00
2018-06-28T06:34:54.074Z,22.13
2018-06-28T06:35:54.081Z,22.17
2018-06-28T06:36:54.089Z,22.20
2018-06-28T06:37:54.095Z,22.14
2018-06-28T06:38:54.100Z,22.20
2018-06-28T06:39:54.108Z,22.30
2018-06-28T06:40:54.119Z,22.35
2018-06-28T06:41:54.121Z,22.38
2018-06-28T06:42:54.127Z,22.43
2018-06-28T06:43:54.134Z,22.47
2018-06-28T06:44:54.140Z,22.54
2018-06-28T06:45:54.148Z,22.51
2018-06-28T06:46:54.153Z,22.54
2018-06-28T06:47:54.160Z,22.57
2018-06-28T06:48:54.167Z,22.60
2018-06-28T06:49:54.173Z,22.73
2018-06-28T06:50:54.179Z,22.68
2018-06-28T06:51:54.186Z,22.78
2018-06-28T06:52:54.198Z,22.80
2018-06-28T06:53:54.200Z,22.83
2018-06-28T06:54:54.205Z,22.84
2018-06-28T06:55:54.212Z,22.91
2018-06-28T06:56:54.218Z,22.91
2018-06-28T06:57:54.225Z,22.90
2018-06-28T06:58:54.231Z,22.83
2018-06-28T06:59:54.237Z,22.78
2018-06-28T07:00:54.244Z,22.73
2018-06-28T07:01:54.251Z,22.91
2018-06-28T07:02:54.256Z,22.98
2018-06-28T07:03:54.317Z,22.98
2018-06-28T07:04:54.268Z,23.05
2018-06-28T07:05:54.276Z,23.13
2018-06-28T07:06:54.282Z,23.09
2018-06-28T07:07:54.289Z,23.17
2018-06-28T07:08:54.295Z,23.18
2018-06-28T07:09:54.306Z,23.31
2018-06-28T07:10:54.306Z,23.18
2018-06-28T07:11:54.314Z,23.27
2018-06-28T07:12:54.320Z,23.34
2018-06-28T07:13:54.327Z,23.25
2018-06-28T07:14:54.333Z,23.39
2018-06-28T07:15:54.363Z,23.51
2018-06-28T07:16:54.345Z,23.48
2018-06-28T07:17:54.352Z,23.51
2018-06-28T07:18:54.358Z,23.59
2018-06-28T07:19:54.365Z,23.56
2018-06-28T07:20:54.370Z,23.65
2018-06-28T07:21:54.377Z,23.56
2018-06-28T07:22:54.441Z,23.74
2018-06-28T07:23:54.390Z,23.73
2018-06-28T07:24:54.397Z,23.76
2018-06-28T07:25:54.402Z,23.80
2018-06-28T07:26:54.408Z,23.86
2018-06-28T07:27:54.416Z,24.03
2018-06-28T07:28:54.423Z,24.20
2018-06-28T07:29:54.430Z,24.21
2018-06-28T07:30:54.436Z,24.53
2018-06-28T07:31:54.444Z,24.78
2018-06-28T07:32:54.451Z,25.48
2018-06-28T07:33:54.461Z,26.25
2018-06-28T07:34:54.469Z,27.03
2018-06-28T07:35:54.476Z,27.86
2018-06-28T07:36:54.485Z,28.38
2018-06-28T07:37:54.495Z,28.48
2018-06-28T07:38:54.511Z,29.02
2018-06-28T07:39:54.517Z,29.26
2018-06-28T07:40:54.528Z,29.56
2018-06-28T07:41:54.540Z,29.59
2018-06-28T07:42:54.553Z,29.94
2018-06-28T07:43:54.567Z,30.65
2018-06-28T07:44:54.577Z,31.00
2018-06-28T07:45:54.592Z,30.57
2018-06-28T07:46:54.656Z,28.98
2018-06-28T07:47:54.620Z,29.02
2018-06-28T07:48:54.634Z,29.54
2018-06-28T07:49:54.649Z,30.35
2018-06-28T07:50:54.665Z,30.88
2018-06-28T07:51:54.679Z,30.69
2018-06-28T07:52:54.693Z,31.07
2018-06-28T07:53:54.710Z,31.66
2018-06-28T07:54:54.728Z,31.61
2018-06-28T07:55:54.742Z,31.31
2018-06-28T07:56:54.759Z,31.25
2018-06-28T07:57:54.775Z,31.81
2018-06-28T07:58:54.788Z,32.14
2018-06-28T07:59:54.804Z,31.59
2018-06-28T08:00:54.821Z,31.46
2018-06-28T08:01:54.837Z,31.34
2018-06-28T08:02:54.851Z,31.20
2018-06-28T08:03:54.868Z,30.72
2018-06-28T08:04:54.885Z,31.07
2018-06-28T08:05:54.906Z,31.54
2018-06-28T08:06:54.917Z,31.42
2018-06-28T08:07:54.934Z,31.61
2018-06-28T08:08:54.951Z,32.01
2018-06-28T08:09:54.968Z,32.48
2018-06-28T08:10:54.984Z,32.97
2018-06-28T08:11:55.001Z,32.85
2018-06-28T08:12:55.017Z,32.95
2018-06-28T08:13:55.034Z,32.75
2018-06-28T08:14:55.052Z,32.51
2018-06-28T08:15:55.067Z,31.80
2018-06-28T08:16:55.085Z,31.65
2018-06-28T08:17:55.102Z,31.47
2018-06-28T08:18:55.117Z,31.77
2018-06-28T08:19:55.136Z,31.29
2018-06-28T08:20:55.153Z,31.00
2018-06-28T08:21:55.171Z,31.52
2018-06-28T08:22:55.192Z,31.96
2018-06-28T08:23:55.203Z,31.15
2018-06-28T08:24:55.222Z,31.27
2018-06-28T08:25:55.239Z,31.18
2018-06-28T08:26:55.286Z,31.33
2018-06-28T08:27:55.274Z,31.69
2018-06-28T08:28:55.292Z,32.31
2018-06-28T08:29:55.309Z,32.53
2018-06-28T08:30:55.326Z,32.73
2018-06-28T08:31:55.347Z,32.80
2018-06-28T08:32:55.360Z,33.12
2018-06-28T08:33:55.380Z,32.82
2018-06-28T08:34:55.399Z,32.43
2018-06-28T08:35:55.425Z,32.95
2018-06-28T08:36:55.432Z,32.75
2018-06-28T08:37:55.450Z,33.08
2018-06-28T08:38:55.470Z,32.11
2018-06-28T08:39:55.484Z,31.69
2018-06-28T08:40:55.504Z,31.76
2018-06-28T08:41:55.521Z,32.40
2018-06-28T08:42:55.539Z,32.27
2018-06-28T08:43:55.557Z,32.18
2018-06-28T08:44:55.576Z,32.38
2018-06-28T08:45:55.593Z,32.40
2018-06-28T08:46:55.613Z,32.11
2018-06-28T08:47:55.635Z,32.70
2018-06-28T08:48:55.653Z,31.55
2018-06-28T08:49:55.665Z,31.25
2018-06-28T08:50:55.682Z,31.93
2018-06-28T08:51:55.700Z,32.60
2018-06-28T08:52:55.718Z,32.64
2018-06-28T08:53:55.737Z,32.52
2018-06-28T08:54:55.754Z,32.04
2018-06-28T08:55:55.773Z,32.30
2018-06-28T08:56:55.796Z,32.60
2018-06-28T08:57:55.981Z,33.23
2018-06-28T08:58:55.826Z,33.20
2018-06-28T08:59:55.844Z,33.65
2018-06-28T09:00:55.863Z,34.01
2018-06-28T09:01:55.879Z,34.57
2018-06-28T09:02:55.897Z,34.14
2018-06-28T09:03:55.914Z,33.37
2018-06-28T09:04:55.933Z,32.40
2018-06-28T09:05:55.953Z,32.14
2018-06-28T09:06:55.968Z,32.36
2018-06-28T09:07:55.988Z,31.94
2018-06-28T09:08:56.006Z,32.09
2018-06-28T09:09:56.024Z,31.78
2018-06-28T09:10:56.042Z,31.92
2018-06-28T09:11:56.058Z,31.96
2018-06-28T09:12:56.079Z,31.33
2018-06-28T09:13:56.095Z,32.12
2018-06-28T09:14:56.113Z,31.93
2018-06-28T09:15:56.131Z,32.18
2018-06-28T09:16:56.149Z,32.68
2018-06-28T09:17:56.166Z,32.53
2018-06-28T09:18:56.184Z,32.96
2018-06-28T09:19:56.202Z,32.70
2018-06-28T09:20:56.223Z,32.64
2018-06-28T09:21:56.239Z,32.78
2018-06-28T09:22:56.264Z,32.41
2018-06-28T09:23:56.273Z,32.71
2018-06-28T09:24:56.292Z,33.23
2018-06-28T09:25:56.310Z,32.77
2018-06-28T09:26:56.327Z,33.15
2018-06-28T09:27:56.346Z,33.19
2018-06-28T09:28:56.363Z,32.63
2018-06-28T09:29:56.382Z,33.19
2018-06-28T09:30:56.405Z,33.47
2018-06-28T09:31:56.417Z,31.90
2018-06-28T09:32:56.437Z,30.87
2018-06-28T09:33:56.453Z,31.12
2018-06-28T09:34:56.470Z,32.07
2018-06-28T09:35:56.593Z,32.93
2018-06-28T09:36:56.508Z,33.40
2018-06-28T09:37:56.524Z,32.04
2018-06-28T09:38:56.542Z,32.40
2018-06-28T09:39:56.558Z,33.12
2018-06-28T09:40:56.576Z,33.43
2018-06-28T09:41:56.595Z,32.85
2018-06-28T09:42:56.612Z,31.61
2018-06-28T09:43:56.629Z,31.66
2018-06-28T09:44:56.647Z,32.18
2018-06-28T09:45:56.665Z,32.53
2018-06-28T09:46:56.680Z,32.71
2018-06-28T09:47:56.699Z,33.08
2018-06-28T09:48:56.717Z,33.14
2018-06-28T09:49:56.733Z,33.02
2018-06-28T09:50:56.751Z,32.04
2018-06-28T09:51:56.768Z,31.42
2018-06-28T09:52:56.786Z,32.37
2018-06-28T09:53:56.805Z,32.92
2018-06-28T09:54:56.820Z,32.08
2018-06-28T09:55:56.838Z,32.07
2018-06-28T09:56:56.854Z,31.94
2018-06-28T09:57:56.872Z,31.73
2018-06-28T09:58:56.887Z,31.65
2018-06-28T09:59:56.906Z,32.08
2018-06-28T10:00:56.923Z,32.14
2018-06-28T10:01:56.941Z,32.27
2018-06-28T10:02:56.958Z,32.64
2018-06-28T10:03:56.974Z,32.82
2018-06-28T10:04:56.993Z,33.00
2018-06-28T10:05:57.009Z,33.34
2018-06-28T10:06:57.085Z,33.28
2018-06-28T10:07:57.044Z,33.14
2018-06-28T10:08:57.061Z,32.93
2018-06-28T10:09:57.076Z,32.90
2018-06-28T10:10:57.093Z,32.86
2018-06-28T10:11:57.110Z,33.20
2018-06-28T10:12:57.131Z,33.40
2018-06-28T10:13:57.144Z,33.73
2018-06-28T10:14:57.160Z,33.01
2018-06-28T10:15:57.177Z,32.65
2018-06-28T10:16:57.194Z,32.34
2018-06-28T10:17:57.213Z,32.33
2018-06-28T10:18:57.227Z,31.51
2018-06-28T10:19:57.243Z,31.85
2018-06-28T10:20:57.262Z,32.37
2018-06-28T10:21:57.279Z,32.82
2018-06-28T10:22:57.294Z,33.15
2018-06-28T10:23:57.312Z,33.07
2018-06-28T10:24:57.353Z,33.34
2018-06-28T10:25:57.345Z,33.64
2018-06-28T10:26:57.362Z,32.21
2018-06-28T10:27:57.376Z,31.85
2018-06-28T10:28:57.394Z,32.03
2018-06-28T10:29:57.414Z,32.52
2018-06-28T10:30:57.426Z,32.92
2018-06-28T10:31:57.444Z,31.77
2018-06-28T10:32:57.462Z,32.30
2018-06-28T10:33:57.478Z,31.96
2018-06-28T10:34:57.493Z,32.15
2018-06-28T10:35:57.509Z,32.38
2018-06-28T10:36:57.525Z,32.82
2018-06-28T10:37:57.543Z,33.01
2018-06-28T10:38:57.558Z,32.87
2018-06-28T10:39:57.575Z,32.67
2018-06-28T10:40:57.632Z,32.93
2018-06-28T10:41:57.608Z,32.74
2018-06-28T10:42:57.623Z,32.97
2018-06-28T10:43:57.640Z,33.19
2018-06-28T10:44:57.660Z,33.00
2018-06-28T10:45:57.672Z,32.95
2018-06-28T10:46:57.687Z,32.56
2018-06-28T10:47:57.703Z,32.75
2018-06-28T10:48:57.720Z,32.60
2018-06-28T10:49:57.736Z,32.67
2018-06-28T10:50:57.749Z,32.18
2018-06-28T10:51:57.766Z,32.97
2018-06-28T10:52:57.782Z,32.95
2018-06-28T10:53:57.811Z,32.90
2018-06-28T10:54:57.814Z,32.71
2018-06-28T10:55:57.830Z,32.52
2018-06-28T10:56:57.848Z,32.07
2018-06-28T10:57:57.861Z,32.07
2018-06-28T10:58:57.876Z,32.34
2018-06-28T10:59:57.892Z,31.61
2018-06-28T11:00:57.908Z,32.09
2018-06-28T11:01:57.924Z,32.04
2018-06-28T11:02:57.943Z,31.31
2018-06-28T11:03:57.954Z,31.00
2018-06-28T11:04:57.970Z,30.57
2018-06-28T11:05:57.987Z,30.87
2018-06-28T11:06:58.002Z,31.29
2018-06-28T11:07:58.016Z,31.87
2018-06-28T11:08:58.032Z,31.78
2018-06-28T11:09:58.046Z,32.11
2018-06-28T11:10:58.061Z,31.54
2018-06-28T11:11:58.076Z,31.69
2018-06-28T11:12:58.092Z,31.90
2018-06-28T11:13:58.105Z,31.70
2018-06-28T11:14:58.120Z,32.08
2018-06-28T11:15:58.135Z,31.46
2018-06-28T11:16:58.149Z,31.14
2018-06-28T11:17:58.164Z,30.78
2018-06-28T11:18:58.178Z,30.19
2018-06-28T11:19:58.194Z,29.22
2018-06-28T11:20:58.209Z,28.62
2018-06-28T11:21:58.223Z,28.37
2018-06-28T11:22:58.237Z,28.52
2018-06-28T11:23:58.252Z,28.84
2018-06-28T11:24:58.265Z,29.04
2018-06-28T11:25:58.280Z,29.16
2018-06-28T11:26:58.292Z,29.34
2018-06-28T11:27:58.307Z,29.14
2018-06-28T11:28:58.323Z,28.94
2018-06-28T11:29:58.338Z,28.54
2018-06-28T11:30:58.347Z,28.12
2018-06-28T11:31:58.361Z,28.37
2018-06-28T11:32:58.374Z,28.63
2018-06-28T11:33:58.389Z,28.97
2018-06-28T11:34:58.401Z,29.32
2018-06-28T11:35:58.415Z,29.38
2018-06-28T11:36:58.440Z,29.49
2018-06-28T11:37:58.441Z,29.53
2018-06-28T11:38:58.453Z,29.78
2018-06-28T11:39:58.466Z,29.81
2018-06-28T11:40:58.483Z,29.81
2018-06-28T11:41:58.493Z,29.60
2018-06-28T11:42:58.505Z,29.19
2018-06-28T11:43:58.517Z,29.01
2018-06-28T11:44:58.530Z,28.97
2018-06-28T11:45:58.544Z,29.05
2018-06-28T11:46:58.555Z,29.12
2018-06-28T11:47:58.567Z,29.10
2018-06-28T11:48:58.582Z,29.14
2018-06-28T11:49:58.593Z,28.93
2018-06-28T11:50:58.605Z,29.20
2018-06-28T11:51:58.618Z,28.91
2018-06-28T11:52:58.631Z,29.10
2018-06-28T11:53:58.645Z,29.22
2018-06-28T11:54:58.656Z,29.08
2018-06-28T11:55:58.668Z,28.86
2018-06-28T11:56:58.681Z,28.88
2018-06-28T11:57:58.696Z,29.05
2018-06-28T11:58:58.708Z,28.85
2018-06-28T11:59:58.717Z,28.79
2018-06-28T12:00:58.730Z,28.85
2018-06-28T12:01:58.743Z,28.81
2018-06-28T12:02:58.755Z,28.81
2018-06-28T12:03:58.766Z,28.64
2018-06-28T12:04:58.780Z,28.45
2018-06-28T12:05:58.791Z,28.52
2018-06-28T12:06:58.802Z,28.57
2018-06-28T12:07:58.814Z,28.62
2018-06-28T12:08:58.826Z,28.60
2018-06-28T12:09:58.837Z,28.79
2018-06-28T12:10:58.850Z,28.94
2018-06-28T12:11:58.862Z,28.98
2018-06-28T12:12:58.872Z,29.12
2018-06-28T12:13:58.886Z,29.19
2018-06-28T12:14:58.897Z,29.34
2018-06-28T12:15:58.909Z,29.27
2018-06-28T12:16:58.921Z,28.88
2018-06-28T12:17:58.933Z,28.63
2018-06-28T12:18:58.943Z,28.79
2018-06-28T12:19:58.956Z,28.81
2018-06-28T12:20:58.966Z,28.64
2018-06-28T12:21:58.979Z,28.72
2018-06-28T12:22:58.989Z,28.72
2018-06-28T12:23:59.002Z,28.76
2018-06-28T12:24:59.013Z,28.94
2018-06-28T12:25:59.026Z,28.91
2018-06-28T12:26:59.037Z,28.98
2018-06-28T12:27:59.046Z,29.16
2018-06-28T12:28:59.062Z,29.13
2018-06-28T12:29:59.071Z,28.76
2018-06-28T12:30:59.129Z,28.44
2018-06-28T12:31:59.093Z,28.37
2018-06-28T12:32:59.104Z,28.39
2018-06-28T12:33:59.116Z,28.33
2018-06-28T12:34:59.126Z,28.63
2018-06-28T12:35:59.138Z,28.97
2018-06-28T12:36:59.148Z,29.23
2018-06-28T12:37:59.161Z,29.32
2018-06-28T12:38:59.170Z,29.36
2018-06-28T12:39:59.183Z,29.56
2018-06-28T12:40:59.193Z,29.49
2018-06-28T12:41:59.206Z,29.59
2018-06-28T12:42:59.217Z,29.54
2018-06-28T12:43:59.230Z,29.53
2018-06-28T12:44:59.282Z,29.44
2018-06-28T12:45:59.251Z,29.54
2018-06-28T12:46:59.261Z,29.65
2018-06-28T12:47:59.273Z,29.45
2018-06-28T12:48:59.285Z,29.04
2018-06-28T12:49:59.296Z,28.78
2018-06-28T12:50:59.308Z,28.63
2018-06-28T12:51:59.318Z,28.57
2018-06-28T12:52:59.333Z,28.76